createdAt,value
2022-08-03T00:01:35.763Z,19.90
2022-08-03T00:04:03.616Z,19.89
2022-08-03T00:06:36.465Z,19.88
2022-08-03T00:09:06.373Z,19.88
2022-08-03T00:11:34.161Z,19.88
2022-08-03T00:14:03.539Z,19.88
2022-08-03T00:16:31.287Z,19.87
2022-08-03T00:19:00.824Z,19.87
2022-08-03T00:21:29.712Z,19.88
2022-08-03T00:23:57.614Z,19.87
2022-08-03T00:26:25.405Z,19.88
2022-08-03T00:28:53.159Z,19.88
2022-08-03T00:31:38.047Z,19.88
2022-08-03T00:34:10.284Z,19.86
2022-08-03T00:36:40.439Z,19.86
2022-08-03T00:39:08.190Z,19.87
2022-08-03T00:41:35.991Z,19.86
2022-08-03T00:44:03.901Z,19.87
2022-08-03T00:46:33.456Z,19.89
2022-08-03T00:49:01.415Z,19.87
2022-08-03T00:51:29.282Z,19.87
2022-08-03T00:53:56.989Z,19.87
2022-08-03T00:56:24.807Z,19.86
2022-08-03T00:58:54.475Z,19.86
2022-08-03T01:01:22.336Z,19.86
2022-08-03T01:03:51.480Z,19.85
2022-08-03T01:06:20.996Z,19.85
2022-08-03T01:08:55.553Z,19.86
2022-08-03T01:11:30.593Z,19.85
2022-08-03T01:14:19.053Z,19.84
2022-08-03T01:16:56.203Z,19.83
2022-08-03T01:19:37.776Z,19.84
2022-08-03T01:22:18.990Z,19.83
2022-08-03T01:24:54.368Z,19.82
2022-08-03T01:27:27.071Z,19.82
2022-08-03T01:30:03.944Z,19.81
2022-08-03T01:32:58.488Z,19.83
2022-08-03T01:35:38.971Z,19.79
2022-08-03T01:38:14.565Z,19.81
2022-08-03T01:40:45.426Z,19.79
2022-08-03T01:44:27.509Z,19.79
2022-08-03T01:46:07.845Z,19.73
2022-08-03T01:48:38.926Z,19.71
2022-08-03T01:51:07.795Z,19.73
2022-08-03T01:53:37.971Z,19.75
2022-08-03T01:56:07.550Z,19.76
2022-08-03T01:58:37.354Z,19.74
2022-08-03T02:01:07.119Z,19.74
2022-08-03T02:03:59.607Z,19.76
2022-08-03T02:07:00.842Z,19.71
2022-08-03T02:09:18.962Z,19.71
2022-08-03T02:11:48.545Z,19.71
2022-08-03T02:14:18.471Z,19.71
2022-08-03T02:16:50.152Z,19.72
2022-08-03T02:19:19.298Z,19.70
2022-08-03T02:21:57.217Z,19.69
2022-08-03T02:24:29.257Z,19.68
2022-08-03T02:26:57.916Z,19.67
2022-08-03T02:29:39.368Z,19.66
2022-08-03T02:32:11.535Z,19.65
2022-08-03T02:34:43.076Z,19.66
2022-08-03T02:37:13.714Z,19.63
2022-08-03T02:39:42.119Z,19.63
2022-08-03T02:42:12.241Z,19.64
2022-08-03T02:44:47.685Z,19.65
2022-08-03T02:47:21.323Z,19.64
2022-08-03T02:49:52.195Z,19.64
2022-08-03T02:52:23.257Z,19.63
2022-08-03T02:54:55.955Z,19.62
2022-08-03T02:57:25.903Z,19.61
2022-08-03T02:59:56.300Z,19.60
2022-08-03T03:02:26.550Z,19.60
2022-08-03T03:05:52.491Z,19.59
2022-08-03T03:07:51.392Z,19.56
2022-08-03T03:10:21.695Z,19.57
2022-08-03T03:12:51.229Z,19.57
2022-08-03T03:15:19.346Z,19.57
2022-08-03T03:17:50.375Z,19.56
2022-08-03T03:20:29.439Z,19.55
2022-08-03T03:23:00.976Z,19.55
2022-08-03T03:25:29.805Z,19.55
2022-08-03T03:27:58.005Z,19.54
2022-08-03T03:30:26.505Z,19.54
2022-08-03T03:32:56.173Z,19.55
2022-08-03T03:35:23.955Z,19.53
2022-08-03T03:37:52.919Z,19.52
2022-08-03T03:40:22.374Z,19.52
2022-08-03T03:42:50.799Z,19.52
2022-08-03T03:45:19.750Z,19.52
2022-08-03T03:47:48.111Z,19.51
2022-08-03T03:50:19.440Z,19.51
2022-08-03T03:52:47.439Z,19.48
2022-08-03T03:55:17.813Z,19.48
2022-08-03T03:57:45.812Z,19.48
2022-08-03T04:00:15.489Z,19.48
2022-08-03T04:02:43.570Z,19.47
2022-08-03T04:05:28.964Z,19.47
2022-08-03T04:08:18.280Z,19.45
2022-08-03T04:11:01.676Z,19.43
2022-08-03T04:13:34.626Z,19.40
2022-08-03T04:16:04.280Z,19.41
2022-08-03T04:18:34.981Z,19.41
2022-08-03T04:21:04.779Z,19.42
2022-08-03T04:23:36.718Z,19.42
2022-08-03T04:26:09.618Z,19.44
2022-08-03T04:28:40.628Z,19.45
2022-08-03T04:31:09.114Z,19.46
2022-08-03T04:33:39.503Z,19.46
2022-08-03T04:36:10.703Z,19.48
2022-08-03T04:38:45.451Z,19.48
2022-08-03T04:41:14.166Z,19.48
2022-08-03T04:43:42.224Z,19.49
2022-08-03T04:46:11.285Z,19.50
2022-08-03T04:48:42.356Z,19.52
2022-08-03T04:51:12.976Z,19.55
2022-08-03T04:53:42.200Z,19.59
2022-08-03T04:56:10.232Z,19.64
2022-08-03T04:58:38.047Z,19.65
2022-08-03T05:01:05.980Z,19.69
2022-08-03T05:03:33.728Z,19.70
2022-08-03T05:06:09.921Z,19.74
2022-08-03T05:08:41.197Z,19.77
2022-08-03T05:11:16.225Z,19.78
2022-08-03T05:13:43.989Z,19.82
2022-08-03T05:16:12.303Z,19.84
2022-08-03T05:18:40.087Z,19.85
2022-08-03T05:21:07.904Z,19.86
2022-08-03T05:23:35.687Z,19.89
2022-08-03T05:26:03.443Z,19.92
2022-08-03T05:28:32.582Z,19.93
2022-08-03T05:31:00.323Z,19.96
2022-08-03T05:33:28.108Z,19.98
2022-08-03T05:36:01.149Z,20.00
2022-08-03T05:38:34.603Z,20.00
2022-08-03T05:41:21.125Z,20.01
2022-08-03T05:43:53.758Z,20.06
2022-08-03T05:46:22.228Z,20.10
2022-08-03T05:48:50.381Z,20.14
2022-08-03T05:51:18.556Z,20.19
2022-08-03T05:53:46.626Z,20.23
2022-08-03T05:56:16.185Z,20.27
2022-08-03T05:58:46.001Z,20.33
2022-08-03T06:01:15.298Z,20.38
2022-08-03T06:03:43.200Z,20.42
2022-08-03T06:06:11.626Z,20.43
2022-08-03T06:08:40.187Z,20.44
2022-08-03T06:11:07.972Z,20.46
2022-08-03T06:13:35.794Z,20.51
2022-08-03T06:16:03.748Z,20.53
2022-08-03T06:18:32.963Z,20.59
2022-08-03T06:21:14.594Z,20.63
2022-08-03T06:23:54.533Z,20.69
2022-08-03T06:26:28.663Z,20.71
2022-08-03T06:28:56.578Z,20.76
2022-08-03T06:31:32.227Z,20.86
2022-08-03T06:34:32.195Z,20.98
2022-08-03T06:36:51.193Z,21.10
2022-08-03T06:39:20.530Z,21.22
2022-08-03T06:41:51.024Z,21.46
2022-08-03T06:44:18.896Z,21.70
2022-08-03T06:46:47.719Z,21.96
2022-08-03T06:49:16.947Z,22.10
2022-08-03T06:52:03.899Z,22.23
2022-08-03T06:54:33.253Z,22.48
2022-08-03T06:57:01.475Z,22.68
2022-08-03T07:00:08.022Z,22.87
2022-08-03T07:02:19.254Z,22.95
2022-08-03T07:04:48.774Z,22.92
2022-08-03T07:07:17.380Z,22.99
2022-08-03T07:09:56.941Z,22.92
2022-08-03T07:12:27.504Z,22.86
2022-08-03T07:15:00.411Z,22.66
2022-08-03T07:17:30.486Z,22.49
2022-08-03T07:20:00.543Z,22.42
2022-08-03T07:22:28.604Z,22.33
2022-08-03T07:24:57.656Z,22.32
2022-08-03T07:27:26.857Z,22.24
2022-08-03T07:29:54.811Z,22.24
2022-08-03T07:32:22.736Z,22.20
2022-08-03T07:34:50.477Z,22.18
2022-08-03T07:37:19.658Z,22.16
2022-08-03T07:39:47.483Z,22.10
2022-08-03T07:42:15.426Z,22.08
2022-08-03T07:44:43.339Z,22.04
2022-08-03T07:47:11.072Z,21.91
2022-08-03T07:49:50.357Z,21.83
2022-08-03T07:52:37.278Z,21.78
2022-08-03T07:55:06.355Z,21.72
2022-08-03T07:57:34.830Z,21.72
2022-08-03T08:00:03.194Z,21.67
2022-08-03T08:02:39.790Z,21.62
2022-08-03T08:05:08.283Z,21.53
2022-08-03T08:07:37.786Z,21.36
2022-08-03T08:10:06.798Z,21.25
2022-08-03T08:12:34.623Z,21.19
2022-08-03T08:15:02.585Z,21.20
2022-08-03T08:17:30.460Z,21.18
2022-08-03T08:19:58.256Z,21.18
2022-08-03T08:22:30.372Z,21.19
2022-08-03T08:25:01.508Z,21.19
2022-08-03T08:28:31.709Z,21.20
2022-08-03T08:30:19.451Z,21.15
2022-08-03T08:32:47.724Z,21.09
2022-08-03T08:35:15.585Z,21.13
2022-08-03T08:37:44.105Z,21.20
2022-08-03T08:40:22.051Z,21.20
2022-08-03T08:42:58.942Z,21.18
2022-08-03T08:45:27.469Z,21.18
2022-08-03T08:48:00.846Z,21.17
2022-08-03T08:50:31.183Z,21.14
2022-08-03T08:53:03.073Z,21.11
2022-08-03T08:55:59.470Z,21.17
2022-08-03T08:58:23.384Z,21.17
2022-08-03T09:00:51.836Z,21.18
2022-08-03T09:03:29.169Z,21.13
2022-08-03T09:05:59.879Z,21.09
2022-08-03T09:08:27.740Z,21.11
2022-08-03T09:10:56.932Z,21.10
2022-08-03T09:13:25.112Z,21.05
2022-08-03T09:16:10.971Z,21.04
2022-08-03T09:18:39.681Z,20.95
2022-08-03T09:21:37.540Z,20.94
2022-08-03T09:24:13.139Z,20.98
2022-08-03T09:26:53.774Z,21.05
2022-08-03T09:29:22.669Z,21.06
2022-08-03T09:31:50.449Z,20.99
2022-08-03T09:34:19.513Z,21.06
2022-08-03T09:36:48.475Z,21.09
2022-08-03T09:39:17.867Z,21.04
2022-08-03T09:41:47.235Z,20.98
2022-08-03T09:44:25.035Z,20.97
2022-08-03T09:46:55.007Z,20.97
2022-08-03T09:49:23.628Z,21.04
2022-08-03T09:52:33.543Z,21.15
2022-08-03T09:54:41.155Z,21.22
2022-08-03T09:57:09.017Z,21.22
2022-08-03T09:59:41.118Z,21.25
2022-08-03T10:02:22.062Z,21.31
2022-08-03T10:04:52.453Z,21.32
2022-08-03T10:07:21.774Z,21.33
2022-08-03T10:09:57.542Z,21.30
2022-08-03T10:12:26.064Z,21.23
2022-08-03T10:14:56.616Z,21.17
2022-08-03T10:17:24.539Z,21.21
2022-08-03T10:19:52.319Z,21.21
2022-08-03T10:22:22.872Z,21.19
2022-08-03T10:24:56.196Z,21.17
2022-08-03T10:27:25.420Z,21.24
2022-08-03T10:29:55.066Z,21.30
2022-08-03T10:32:31.623Z,21.32
2022-08-03T10:35:19.152Z,21.33
2022-08-03T10:37:57.223Z,21.40
2022-08-03T10:43:21.684Z,21.58
2022-08-03T10:45:50.726Z,21.59
2022-08-03T10:48:21.061Z,21.67
2022-08-03T10:50:50.496Z,21.70
2022-08-03T10:53:35.566Z,21.77
2022-08-03T10:56:47.275Z,21.74
2022-08-03T10:59:09.842Z,21.79
2022-08-03T11:02:00.242Z,21.76
2022-08-03T11:04:30.925Z,21.75
2022-08-03T11:07:22.706Z,21.82
2022-08-03T11:09:51.226Z,21.75
2022-08-03T11:12:30.924Z,21.77
2022-08-03T11:15:02.081Z,21.79
2022-08-03T11:17:30.039Z,21.64
2022-08-03T11:19:59.271Z,21.59
2022-08-03T11:22:47.367Z,21.65
2022-08-03T11:25:53.915Z,21.65
2022-08-03T11:28:27.047Z,21.62
2022-08-03T11:30:54.970Z,21.63
2022-08-03T11:33:32.572Z,21.67
2022-08-03T11:36:03.050Z,21.65
2022-08-03T11:38:30.807Z,21.62
2022-08-03T11:40:58.593Z,21.64
2022-08-03T11:43:46.321Z,21.63
2022-08-03T11:46:28.618Z,21.63
2022-08-03T11:49:10.230Z,21.65
2022-08-03T11:51:41.011Z,21.62
2022-08-03T11:54:08.968Z,21.63
2022-08-03T11:56:46.656Z,21.73
2022-08-03T11:59:20.452Z,21.79
2022-08-03T12:01:49.736Z,21.80
2022-08-03T12:04:17.591Z,21.79
2022-08-03T12:07:00.886Z,21.81
2022-08-03T12:09:28.632Z,21.79
2022-08-03T12:12:00.646Z,21.71
2022-08-03T12:14:49.373Z,21.67
2022-08-03T12:17:18.417Z,21.61
2022-08-03T12:19:46.491Z,21.64
2022-08-03T12:22:16.780Z,21.73
2022-08-03T12:24:47.169Z,21.76
2022-08-03T12:27:24.976Z,21.84
2022-08-03T12:29:58.723Z,21.90
2022-08-03T12:32:27.845Z,21.97
2022-08-03T12:35:00.083Z,21.99
2022-08-03T12:37:30.015Z,21.96
2022-08-03T12:40:03.081Z,21.97
2022-08-03T12:42:35.939Z,21.97
2022-08-03T12:45:25.620Z,21.97
2022-08-03T12:47:56.138Z,22.08
2022-08-03T12:50:29.100Z,22.18
2022-08-03T12:52:59.863Z,22.23
2022-08-03T12:55:40.073Z,22.32
2022-08-03T12:58:33.648Z,22.51
2022-08-03T13:01:05.263Z,22.53
2022-08-03T13:03:43.353Z,22.59
2022-08-03T13:06:14.621Z,22.59
2022-08-03T13:08:45.597Z,22.55
2022-08-03T13:11:21.450Z,22.61
2022-08-03T13:13:49.597Z,22.60
2022-08-03T13:16:19.339Z,22.50
2022-08-03T13:18:48.104Z,22.40
2022-08-03T13:21:17.306Z,22.36
2022-08-03T13:23:46.709Z,22.31
2022-08-03T13:26:14.623Z,22.22
2022-08-03T13:28:42.798Z,22.19
2022-08-03T13:31:10.746Z,22.21
2022-08-03T13:33:39.682Z,22.26
2022-08-03T13:36:08.144Z,22.22
2022-08-03T13:38:35.969Z,22.16
2022-08-03T13:41:05.294Z,22.24
2022-08-03T13:43:33.050Z,22.28
2022-08-03T13:46:00.785Z,22.29
2022-08-03T13:48:36.219Z,22.33
2022-08-03T13:51:21.839Z,22.34
2022-08-03T13:53:52.245Z,22.36
2022-08-03T13:56:21.431Z,22.36
2022-08-03T13:58:49.175Z,22.38
2022-08-03T14:01:17.426Z,22.39
2022-08-03T14:03:46.987Z,22.46
2022-08-03T14:06:14.727Z,22.51
2022-08-03T14:08:42.608Z,22.57
2022-08-03T14:11:10.340Z,22.71
2022-08-03T14:13:39.589Z,22.76
2022-08-03T14:16:09.993Z,22.72
2022-08-03T14:18:38.035Z,22.68
2022-08-03T14:21:09.281Z,22.68
2022-08-03T14:23:38.580Z,22.72
2022-08-03T14:26:08.410Z,22.80
2022-08-03T14:28:36.731Z,22.82
2022-08-03T14:31:08.537Z,22.86
2022-08-03T14:33:53.696Z,22.76
2022-08-03T14:36:21.521Z,22.74
2022-08-03T14:38:49.505Z,22.74
2022-08-03T14:41:20.091Z,22.72
2022-08-03T14:44:00.627Z,22.70
2022-08-03T14:46:32.035Z,22.72
2022-08-03T14:50:27.939Z,22.77
2022-08-03T14:51:53.508Z,22.77
2022-08-03T14:54:22.201Z,22.83
2022-08-03T14:56:49.937Z,22.83
2022-08-03T14:59:17.691Z,22.77
2022-08-03T15:02:04.419Z,22.75
2022-08-03T15:04:34.326Z,22.70
2022-08-03T15:07:02.076Z,22.78
2022-08-03T15:09:29.867Z,22.89
2022-08-03T15:11:57.789Z,22.91
2022-08-03T15:14:32.330Z,22.88
2022-08-03T15:17:02.602Z,22.88
2022-08-03T15:20:00.466Z,22.82
2022-08-03T15:22:20.457Z,22.76
2022-08-03T15:24:48.837Z,22.82
2022-08-03T15:27:16.679Z,22.80
2022-08-03T15:30:06.671Z,22.75
2022-08-03T15:32:34.014Z,22.69
2022-08-03T15:35:01.875Z,22.74
2022-08-03T15:37:29.634Z,22.79
2022-08-03T15:39:58.869Z,22.83
2022-08-03T15:42:29.488Z,22.77
2022-08-03T15:44:57.371Z,22.79
2022-08-03T15:47:25.462Z,22.74
2022-08-03T15:49:54.584Z,22.77
2022-08-03T15:52:22.409Z,22.84
2022-08-03T15:54:50.292Z,22.91
2022-08-03T15:57:18.187Z,22.94
2022-08-03T15:59:46.184Z,23.00
2022-08-03T16:02:14.033Z,23.07
2022-08-03T16:04:41.820Z,23.15
2022-08-03T16:07:17.587Z,23.22
2022-08-03T16:09:45.364Z,23.26
2022-08-03T16:12:16.114Z,23.31
2022-08-03T16:14:52.259Z,23.37
2022-08-03T16:17:21.558Z,23.45
2022-08-03T16:19:49.824Z,23.52
2022-08-03T16:22:19.509Z,23.55
2022-08-03T16:24:47.683Z,23.53
2022-08-03T16:27:37.522Z,23.49
2022-08-03T16:30:03.276Z,23.39
2022-08-03T16:32:31.271Z,23.36
2022-08-03T16:34:59.047Z,23.31
2022-08-03T16:37:56.286Z,23.35
2022-08-03T16:40:17.650Z,23.40
2022-08-03T16:42:47.723Z,23.49
2022-08-03T16:45:15.708Z,23.49
2022-08-03T16:47:43.502Z,23.50
2022-08-03T16:50:19.029Z,23.58
2022-08-03T16:52:48.890Z,23.69
2022-08-03T16:55:42.966Z,23.68
2022-08-03T16:58:06.461Z,23.72
2022-08-03T17:00:41.325Z,23.76
2022-08-03T17:03:19.041Z,23.83
2022-08-03T17:05:49.938Z,23.84
2022-08-03T17:08:27.066Z,23.80
2022-08-03T17:10:55.822Z,23.72
2022-08-03T17:13:38.864Z,23.71
2022-08-03T17:16:11.898Z,23.69
2022-08-03T17:18:47.546Z,23.72
2022-08-03T17:21:17.074Z,23.72
2022-08-03T17:23:55.800Z,23.70
2022-08-03T17:26:30.411Z,23.65
2022-08-03T17:29:11.445Z,23.56
2022-08-03T17:31:48.600Z,23.48
2022-08-03T17:34:17.746Z,23.45
2022-08-03T17:37:03.668Z,23.41
2022-08-03T17:39:58.765Z,23.31
2022-08-03T17:42:30.442Z,23.29
2022-08-03T17:45:02.050Z,23.28
2022-08-03T17:47:41.987Z,23.24
2022-08-03T17:50:25.026Z,23.20
2022-08-03T17:53:01.064Z,23.18
2022-08-03T17:55:56.823Z,23.16
2022-08-03T17:58:43.744Z,23.18
2022-08-03T18:02:03.199Z,23.18
2022-08-03T18:04:29.837Z,23.17
2022-08-03T18:07:00.375Z,23.17
2022-08-03T18:10:06.428Z,23.16
2022-08-03T18:12:32.034Z,23.12
2022-08-03T18:15:07.771Z,23.07
2022-08-03T18:17:55.604Z,23.00
2022-08-03T18:20:32.112Z,22.91
2022-08-03T18:23:04.895Z,22.86
2022-08-03T18:25:43.033Z,22.79
2022-08-03T18:28:23.143Z,22.70
2022-08-03T18:30:54.470Z,22.65
2022-08-03T18:34:19.400Z,22.54
2022-08-03T18:36:17.676Z,22.46
2022-08-03T18:38:53.829Z,22.44
2022-08-03T18:41:32.460Z,22.43
2022-08-03T18:44:08.282Z,22.39
2022-08-03T18:46:51.480Z,22.36
2022-08-03T18:49:38.424Z,22.31
2022-08-03T18:52:16.560Z,22.25
2022-08-03T18:55:03.877Z,22.20
2022-08-03T18:57:46.427Z,22.13
2022-08-03T19:00:24.398Z,22.10
2022-08-03T19:03:05.770Z,22.04
2022-08-03T19:05:53.030Z,21.98
2022-08-03T19:08:34.651Z,21.93
2022-08-03T19:11:06.203Z,21.89
2022-08-03T19:13:50.277Z,21.85
2022-08-03T19:16:38.838Z,21.77
2022-08-03T19:19:10.708Z,21.71
2022-08-03T19:21:42.382Z,21.65
2022-08-03T19:24:10.558Z,21.62
2022-08-03T19:26:41.213Z,21.59
2022-08-03T19:29:14.922Z,21.56
2022-08-03T19:31:57.954Z,21.52
2022-08-03T19:34:28.866Z,21.44
2022-08-03T19:36:57.697Z,21.40
2022-08-03T19:39:25.666Z,21.35
2022-08-03T19:41:59.294Z,21.29
2022-08-03T19:44:38.881Z,21.23
2022-08-03T19:47:16.836Z,21.18
2022-08-03T19:50:06.045Z,21.13
2022-08-03T19:52:38.714Z,21.06
2022-08-03T19:55:12.042Z,20.98
2022-08-03T19:57:44.004Z,20.93
2022-08-03T20:00:29.329Z,20.95
2022-08-03T20:03:03.467Z,20.90
2022-08-03T20:05:44.970Z,20.87
2022-08-03T20:08:20.661Z,20.83
2022-08-03T20:10:51.395Z,20.81
2022-08-03T20:13:23.859Z,20.77
2022-08-03T20:15:58.720Z,20.75
2022-08-03T20:18:27.813Z,20.71
2022-08-03T20:21:00.160Z,20.69
2022-08-03T20:23:37.401Z,20.66
2022-08-03T20:26:05.491Z,20.63
2022-08-03T20:28:50.180Z,20.61
2022-08-03T20:31:25.150Z,20.58
2022-08-03T20:34:04.620Z,20.56
2022-08-03T20:36:32.157Z,20.46
2022-08-03T20:39:00.263Z,20.43
2022-08-03T20:41:28.248Z,20.43
2022-08-03T20:44:00.889Z,20.42
2022-08-03T20:46:40.656Z,20.39
2022-08-03T20:49:21.208Z,20.35
2022-08-03T20:51:53.059Z,20.32
2022-08-03T20:54:30.971Z,20.28
2022-08-03T20:57:00.399Z,20.24
2022-08-03T20:59:38.457Z,20.21
2022-08-03T21:02:19.818Z,20.17
2022-08-03T21:05:03.604Z,20.16
2022-08-03T21:07:45.527Z,20.14
2022-08-03T21:10:30.668Z,20.12
2022-08-03T21:13:15.268Z,20.12
2022-08-03T21:16:12.731Z,20.09
2022-08-03T21:18:43.162Z,20.04
2022-08-03T21:21:15.667Z,20.05
2022-08-03T21:23:48.847Z,20.04
2022-08-03T21:26:18.722Z,20.00
2022-08-03T21:28:47.668Z,19.99
2022-08-03T21:31:24.860Z,19.97
2022-08-03T21:33:55.533Z,19.93
2022-08-03T21:36:25.406Z,19.91
2022-08-03T21:38:56.108Z,19.88
2022-08-03T21:41:24.997Z,19.86
2022-08-03T21:43:52.742Z,19.83
2022-08-03T21:46:21.249Z,19.81
2022-08-03T21:48:56.241Z,19.79
2022-08-03T21:51:26.946Z,19.75
2022-08-03T21:54:02.727Z,19.72
2022-08-03T21:56:37.516Z,19.69
2022-08-03T21:59:08.598Z,19.62
2022-08-03T22:01:40.650Z,19.60
2022-08-03T22:04:11.929Z,19.57
2022-08-03T22:07:00.545Z,19.53
2022-08-03T22:09:29.289Z,19.51
2022-08-03T22:11:57.086Z,19.50
2022-08-03T22:14:24.908Z,19.50
2022-08-03T22:16:52.697Z,19.48
2022-08-03T22:19:20.431Z,19.44
2022-08-03T22:21:49.565Z,19.40
2022-08-03T22:24:23.797Z,19.37
2022-08-03T22:27:18.923Z,19.34
2022-08-03T22:29:46.904Z,19.29
2022-08-03T22:32:14.674Z,19.27
2022-08-03T22:34:43.821Z,19.25
2022-08-03T22:37:12.292Z,19.23
2022-08-03T22:39:43.739Z,19.20
2022-08-03T22:42:12.427Z,19.14
2022-08-03T22:44:41.286Z,19.13
2022-08-03T22:47:10.498Z,19.11
2022-08-03T22:49:39.106Z,19.07
2022-08-03T22:52:08.439Z,19.04
2022-08-03T22:54:36.528Z,19.02
2022-08-03T22:57:06.105Z,19.01
2022-08-03T22:59:39.069Z,18.96
2022-08-03T23:02:20.307Z,18.93
2022-08-03T23:04:52.163Z,18.89
2022-08-03T23:07:28.345Z,18.86
2022-08-03T23:09:57.449Z,18.84
2022-08-03T23:12:29.502Z,18.80
2022-08-03T23:15:01.475Z,18.76
2022-08-03T23:17:32.363Z,18.76
2022-08-03T23:20:04.690Z,18.75
2022-08-03T23:22:35.194Z,18.76
2022-08-03T23:25:04.859Z,18.76
2022-08-03T23:27:34.491Z,18.80
2022-08-03T23:30:03.393Z,18.81
2022-08-03T23:32:31.943Z,18.81
2022-08-03T23:35:19.248Z,18.81
2022-08-03T23:38:04.618Z,18.77
2022-08-03T23:40:38.143Z,18.74
2022-08-03T23:43:07.497Z,18.72
2022-08-03T23:45:42.112Z,18.71
2022-08-03T23:48:09.826Z,18.66
2022-08-03T23:50:45.501Z,18.67
2022-08-03T23:53:18.466Z,18.67
2022-08-03T23:56:02.578Z,18.69
2022-08-03T23:59:00.042Z,18.69
